Time;durP1;ratioP1;P1;durP2;ratioP2;P2;SDS_P1;SDS_P2;PMS_P1;PMS_P2;Temp;Humidity;BMP_temperature;BMP_pressure;BME280_temperature;BME280_humidity;BME280_pressure;Samples;Min_cycle;Max_cycle;Signal;HPM_P1;HPM_P2
2022/09/28 00:01:08;;;;;;;0.47;0.47;;;11.80;99.90;;;;;;5023822;28;20212;-69
2022/09/28 00:03:36;;;;;;;0.70;0.70;;;11.80;99.90;;;;;;5029953;28;20246;-68
2022/09/28 00:06:04;;;;;;;0.60;0.60;;;11.80;99.90;;;;;;5026520;28;20225;-68
2022/09/28 00:08:31;;;;;;;0.70;0.70;;;11.80;99.90;;;;;;5033857;28;20667;-69
2022/09/28 00:10:58;;;;;;;0.73;0.73;;;11.80;99.90;;;;;;5033835;28;20197;-70
2022/09/28 00:13:27;;;;;;;0.60;0.60;;;11.80;99.90;;;;;;5032761;28;20319;-69
2022/09/28 00:16:01;;;;;;;0.70;0.60;;;11.80;99.90;;;;;;5034183;28;20205;-68
2022/09/28 00:18:30;;;;;;;0.60;0.60;;;11.90;99.90;;;;;;5033804;28;20293;-68
2022/09/28 00:21:02;;;;;;;0.70;0.70;;;11.90;99.90;;;;;;5034025;28;20204;-69
2022/09/28 00:23:29;;;;;;;0.70;0.70;;;11.90;99.90;;;;;;5034575;28;20231;-68
2022/09/28 00:25:56;;;;;;;0.80;0.80;;;11.90;99.90;;;;;;5034098;28;20220;-69
2022/09/28 00:28:22;;;;;;;0.50;0.50;;;11.90;99.90;;;;;;5034015;28;20201;-68
2022/09/28 00:30:55;;;;;;;0.80;0.80;;;11.90;99.90;;;;;;5033833;28;20197;-69
2022/09/28 00:33:22;;;;;;;0.97;0.90;;;11.90;99.90;;;;;;5033584;28;20278;-69
2022/09/28 00:35:56;;;;;;;0.73;0.73;;;11.90;99.90;;;;;;5033967;28;20199;-68
2022/09/28 00:38:27;;;;;;;0.57;0.57;;;11.90;99.90;;;;;;5033859;28;20677;-69
2022/09/28 00:40:54;;;;;;;0.60;0.60;;;12.00;99.90;;;;;;5034174;28;20205;-69
2022/09/28 00:43:22;;;;;;;0.87;0.87;;;12.00;99.90;;;;;;5033706;28;20703;-69
2022/09/28 00:45:56;;;;;;;1.60;0.97;;;12.00;99.90;;;;;;5036078;28;20588;-69
2022/09/28 00:48:24;;;;;;;0.97;0.97;;;12.10;99.90;;;;;;5030248;28;20201;-70
2022/09/28 00:50:51;;;;;;;1.00;1.00;;;12.00;99.90;;;;;;5041209;28;20291;-69
2022/09/28 00:53:23;;;;;;;1.03;1.03;;;12.10;99.90;;;;;;5035753;28;20234;-68
2022/09/28 00:55:53;;;;;;;0.63;0.63;;;12.10;99.90;;;;;;5033696;28;20197;-69
2022/09/28 00:58:26;;;;;;;0.90;0.90;;;12.10;99.90;;;;;;5033298;28;20201;-68
2022/09/28 01:00:54;;;;;;;1.23;1.20;;;12.10;99.90;;;;;;5032830;28;20659;-69
2022/09/28 01:03:22;;;;;;;1.03;1.03;;;12.10;99.90;;;;;;5032777;28;20706;-69
2022/09/28 01:05:50;;;;;;;1.30;1.20;;;12.10;99.90;;;;;;5032958;28;20243;-68
2022/09/28 01:08:22;;;;;;;1.13;1.10;;;12.10;99.90;;;;;;5025907;28;20201;-68
2022/09/28 01:10:50;;;;;;;1.10;1.10;;;12.10;99.90;;;;;;5031673;28;20205;-68
2022/09/28 01:13:18;;;;;;;1.20;1.10;;;12.20;99.90;;;;;;5024018;28;20240;-69
2022/09/28 01:15:51;;;;;;;1.30;0.90;;;12.20;99.90;;;;;;5032943;28;20670;-68
2022/09/28 01:18:24;;;;;;;0.67;0.67;;;12.20;99.90;;;;;;5026862;28;20580;-68
2022/09/28 01:21:01;;;;;;;1.00;1.00;;;12.20;99.90;;;;;;5026623;28;20201;-69
2022/09/28 01:23:48;;;;;;;0.87;0.87;;;12.30;99.90;;;;;;5032508;28;20247;-69
2022/09/28 01:26:36;;;;;;;0.90;0.90;;;12.30;99.90;;;;;;5024831;28;20208;-69
2022/09/28 01:29:09;;;;;;;0.73;0.73;;;12.30;99.90;;;;;;5033199;28;20200;-67
2022/09/28 01:31:45;;;;;;;0.70;0.70;;;12.20;99.90;;;;;;5038773;28;20228;-70
2022/09/28 01:34:26;;;;;;;0.90;0.90;;;12.20;99.90;;;;;;5038198;28;20223;-67
2022/09/28 01:37:09;;;;;;;0.73;0.73;;;12.30;99.90;;;;;;5030994;28;20279;-71
2022/09/28 01:39:40;;;;;;;0.90;0.90;;;12.30;99.90;;;;;;5021357;28;20259;-68
2022/09/28 01:42:13;;;;;;;0.70;0.70;;;12.30;99.90;;;;;;5037512;28;20218;-68
2022/09/28 01:44:44;;;;;;;0.70;0.70;;;12.20;99.90;;;;;;5023138;28;20694;-69
2022/09/28 01:47:13;;;;;;;0.63;0.63;;;12.30;99.90;;;;;;5032745;28;20225;-70
2022/09/28 01:49:45;;;;;;;1.00;1.00;;;12.20;99.90;;;;;;5023221;28;20206;-69
2022/09/28 01:52:18;;;;;;;0.63;0.63;;;12.20;99.90;;;;;;5032587;28;20207;-69
2022/09/28 01:54:49;;;;;;;0.73;0.73;;;12.20;99.90;;;;;;5024400;28;20996;-69
2022/09/28 01:57:22;;;;;;;0.70;0.70;;;12.30;99.90;;;;;;5025721;28;20220;-69
2022/09/28 01:59:55;;;;;;;0.70;0.70;;;12.30;99.90;;;;;;5031780;28;20200;-68
2022/09/28 02:02:28;;;;;;;0.80;0.80;;;12.30;99.90;;;;;;5035861;28;20201;-68
2022/09/28 02:05:00;;;;;;;0.90;0.90;;;12.30;99.90;;;;;;5030798;28;20702;-68
2022/09/28 02:07:31;;;;;;;0.70;0.70;;;12.30;99.90;;;;;;5032447;28;20212;-69
2022/09/28 02:10:05;;;;;;;0.80;0.80;;;12.30;99.90;;;;;;5028782;28;20263;-69
2022/09/28 02:12:37;;;;;;;0.73;0.73;;;12.30;99.90;;;;;;5032128;28;20211;-68
2022/09/28 02:15:11;;;;;;;0.70;0.70;;;12.30;99.90;;;;;;5031821;28;20251;-70
2022/09/28 02:17:38;;;;;;;0.87;0.87;;;12.30;99.90;;;;;;5033265;28;20278;-68
2022/09/28 02:20:06;;;;;;;0.83;0.80;;;12.30;99.90;;;;;;5033676;28;20232;-68
2022/09/28 02:22:39;;;;;;;0.87;0.60;;;12.30;99.90;;;;;;5033603;28;20216;-69
2022/09/28 02:25:10;;;;;;;0.70;0.70;;;12.30;99.90;;;;;;5033907;28;20228;-69
2022/09/28 02:27:45;;;;;;;0.40;0.40;;;12.40;99.90;;;;;;5022294;28;20192;-68
2022/09/28 02:30:13;;;;;;;0.87;0.87;;;12.40;99.90;;;;;;5031911;28;20198;-69
2022/09/28 02:32:44;;;;;;;0.40;0.40;;;12.40;99.90;;;;;;5022568;28;20284;-69
2022/09/28 02:35:13;;;;;;;0.70;0.70;;;12.40;99.90;;;;;;5031040;28;20365;-68
2022/09/28 02:37:40;;;;;;;0.40;0.40;;;12.40;99.90;;;;;;5031841;28;20204;-68
2022/09/28 02:40:14;;;;;;;0.70;0.70;;;12.30;99.90;;;;;;5031862;28;20215;-68
2022/09/28 02:42:52;;;;;;;0.83;0.83;;;12.40;99.90;;;;;;5031738;28;20233;-70
2022/09/28 02:45:33;;;;;;;0.70;0.70;;;12.30;99.90;;;;;;5017850;28;20235;-68
2022/09/28 02:48:12;;;;;;;1.17;1.07;;;12.30;99.90;;;;;;5029558;28;20204;-68
2022/09/28 02:50:44;;;;;;;0.60;0.60;;;12.30;99.90;;;;;;5037281;28;20205;-68
2022/09/28 02:53:35;;;;;;;0.90;0.90;;;12.30;99.90;;;;;;5038182;28;20216;-69
2022/09/28 02:56:19;;;;;;;0.60;0.60;;;12.30;99.90;;;;;;5034343;28;20204;-68
2022/09/28 02:58:55;;;;;;;0.97;0.90;;;12.20;99.90;;;;;;5032031;28;20596;-68
2022/09/28 03:01:29;;;;;;;1.33;0.93;;;12.20;99.90;;;;;;5028588;28;20211;-69
2022/09/28 03:04:01;;;;;;;0.87;0.87;;;12.20;99.90;;;;;;5031909;28;20219;-69
2022/09/28 03:06:33;;;;;;;0.77;0.77;;;12.20;99.90;;;;;;5027858;28;20229;-69
2022/09/28 03:09:05;;;;;;;0.60;0.60;;;12.20;99.90;;;;;;5030115;28;20207;-69
2022/09/28 03:11:37;;;;;;;0.90;0.90;;;12.30;99.90;;;;;;5031443;28;20594;-69
2022/09/28 03:14:06;;;;;;;0.90;0.90;;;12.20;99.90;;;;;;5031061;28;20240;-69
2022/09/28 03:16:33;;;;;;;1.00;1.00;;;12.20;99.90;;;;;;5031664;28;20337;-68
2022/09/28 03:19:00;;;;;;;0.70;0.70;;;12.20;99.90;;;;;;5029232;28;20284;-68
2022/09/28 03:21:27;;;;;;;0.80;0.80;;;12.20;99.90;;;;;;5031242;28;20643;-68
2022/09/28 03:23:54;;;;;;;0.80;0.80;;;12.20;99.90;;;;;;5034670;28;20224;-68
2022/09/28 03:26:21;;;;;;;0.93;0.93;;;12.20;99.90;;;;;;5033481;28;20229;-69
2022/09/28 03:28:48;;;;;;;0.50;0.50;;;12.20;99.90;;;;;;5031131;28;20853;-68
2022/09/28 03:31:16;;;;;;;0.70;0.70;;;12.30;99.90;;;;;;5023442;28;20234;-69
2022/09/28 03:33:43;;;;;;;0.60;0.60;;;12.30;99.90;;;;;;5030889;28;20224;-70
2022/09/28 03:36:09;;;;;;;0.80;0.80;;;12.30;99.90;;;;;;5031816;28;20223;-71
2022/09/28 03:38:36;;;;;;;0.80;0.80;;;12.40;99.90;;;;;;5033094;28;20205;-68
2022/09/28 03:41:03;;;;;;;0.70;0.70;;;12.40;99.90;;;;;;5037423;28;20796;-68
2022/09/28 03:43:30;;;;;;;0.80;0.80;;;12.40;99.90;;;;;;5031034;28;20231;-70
2022/09/28 03:45:59;;;;;;;0.60;0.60;;;12.30;99.90;;;;;;5031682;28;20217;-67
2022/09/28 03:48:29;;;;;;;0.60;0.60;;;12.30;99.90;;;;;;5034912;28;20200;-69
2022/09/28 03:50:57;;;;;;;0.60;0.60;;;12.30;99.90;;;;;;5035054;28;20207;-68
2022/09/28 03:53:24;;;;;;;1.37;0.93;;;12.30;99.90;;;;;;5035304;28;20274;-69
2022/09/28 03:55:52;;;;;;;0.50;0.50;;;12.20;99.90;;;;;;5034882;28;20665;-67
2022/09/28 03:58:19;;;;;;;0.70;0.70;;;12.20;99.90;;;;;;5035081;28;20560;-70
2022/09/28 04:00:46;;;;;;;0.40;0.40;;;12.20;99.90;;;;;;5040776;28;20207;-70
2022/09/28 04:03:13;;;;;;;0.70;0.70;;;12.20;99.90;;;;;;5039302;28;20268;-68
2022/09/28 04:05:48;;;;;;;0.70;0.70;;;12.20;99.90;;;;;;5036625;28;20212;-68
2022/09/28 04:08:15;;;;;;;0.33;0.33;;;12.30;99.90;;;;;;5034597;28;20200;-68
2022/09/28 04:10:42;;;;;;;0.30;0.30;;;12.20;99.90;;;;;;5037461;28;20197;-69
2022/09/28 04:13:09;;;;;;;0.30;0.30;;;12.30;99.90;;;;;;5036733;28;20686;-69
2022/09/28 04:15:37;;;;;;;0.60;0.60;;;12.30;99.90;;;;;;5035576;28;20200;-69
2022/09/28 04:18:04;;;;;;;0.70;0.70;;;12.30;99.90;;;;;;5036710;28;20215;-69
2022/09/28 04:20:32;;;;;;;0.70;0.70;;;12.30;99.90;;;;;;5044419;28;20254;-70
2022/09/28 04:23:00;;;;;;;0.43;0.43;;;12.20;99.90;;;;;;5044834;28;20231;-67
2022/09/28 04:25:27;;;;;;;0.50;0.50;;;12.30;99.90;;;;;;5046445;28;20200;-68
2022/09/28 04:30:37;;;;;;;0.50;0.50;;;12.20;99.90;;;;;;5034565;28;20574;-69
2022/09/28 04:33:05;;;;;;;0.40;0.40;;;12.20;99.90;;;;;;5033944;28;20291;-70
2022/09/28 04:35:32;;;;;;;0.40;0.40;;;12.20;99.90;;;;;;5034288;28;20287;-69
2022/09/28 04:38:00;;;;;;;0.50;0.50;;;12.30;99.90;;;;;;5034608;28;20583;-68
2022/09/28 04:40:27;;;;;;;0.50;0.50;;;12.30;99.90;;;;;;5032917;28;20223;-68
2022/09/28 04:42:54;;;;;;;0.83;0.83;;;12.40;99.90;;;;;;5030932;28;20209;-70
2022/09/28 04:45:21;;;;;;;1.07;1.07;;;12.40;99.90;;;;;;5028872;28;20200;-70
2022/09/28 04:47:48;;;;;;;0.80;0.80;;;12.40;99.90;;;;;;5019711;28;20227;-70
2022/09/28 04:50:15;;;;;;;0.70;0.70;;;12.40;99.90;;;;;;5033130;28;20200;-68
2022/09/28 04:52:42;;;;;;;0.47;0.47;;;12.40;99.90;;;;;;5028246;28;20205;-68
2022/09/28 04:55:12;;;;;;;0.40;0.40;;;12.40;99.90;;;;;;5025376;28;20234;-68
2022/09/28 04:57:39;;;;;;;0.30;0.30;;;12.40;99.90;;;;;;5029828;28;20201;-67
2022/09/28 05:00:07;;;;;;;0.20;0.20;;;12.40;99.90;;;;;;5024261;28;20231;-67
2022/09/28 05:02:34;;;;;;;0.20;0.20;;;12.40;99.90;;;;;;5032222;28;20239;-67
2022/09/28 05:05:01;;;;;;;0.40;0.40;;;12.40;99.90;;;;;;5033778;28;20216;-66
2022/09/28 05:07:27;;;;;;;0.20;0.20;;;12.40;99.90;;;;;;5032450;28;20212;-66
2022/09/28 05:09:55;;;;;;;0.40;0.40;;;12.40;99.90;;;;;;5033091;28;20221;-66
2022/09/28 05:12:24;;;;;;;0.37;0.37;;;12.40;99.90;;;;;;5033314;28;20262;-66
2022/09/28 05:14:51;;;;;;;0.20;0.20;;;12.40;99.90;;;;;;5031757;28;20223;-67
2022/09/28 05:17:17;;;;;;;0.57;0.40;;;12.40;99.90;;;;;;5025817;28;20232;-66
2022/09/28 05:19:44;;;;;;;0.30;0.30;;;12.40;99.90;;;;;;5029199;28;20326;-66
2022/09/28 05:22:13;;;;;;;0.40;0.40;;;12.30;99.90;;;;;;5033326;28;20197;-67
2022/09/28 05:24:40;;;;;;;0.40;0.40;;;12.30;99.90;;;;;;5030223;28;20216;-67
2022/09/28 05:27:07;;;;;;;0.40;0.40;;;12.30;99.90;;;;;;5033053;28;20224;-67
2022/09/28 05:29:35;;;;;;;0.23;0.23;;;12.30;99.90;;;;;;5014796;28;20292;-66
2022/09/28 05:32:02;;;;;;;0.20;0.20;;;12.30;99.90;;;;;;5012145;28;20215;-66
2022/09/28 05:34:29;;;;;;;0.43;0.43;;;12.30;99.90;;;;;;5012689;28;20670;-67
2022/09/28 05:36:56;;;;;;;0.40;0.40;;;12.30;99.90;;;;;;5015155;28;20201;-67
2022/09/28 05:39:23;;;;;;;0.33;0.33;;;12.30;99.90;;;;;;5013950;28;20207;-66
2022/09/28 05:41:50;;;;;;;0.30;0.30;;;12.20;99.90;;;;;;5011021;28;20201;-67
2022/09/28 05:44:17;;;;;;;0.77;0.33;;;12.20;99.90;;;;;;5024849;28;20243;-66
2022/09/28 05:46:45;;;;;;;0.20;0.20;;;12.20;99.90;;;;;;5024121;28;20691;-67
2022/09/28 05:49:12;;;;;;;0.40;0.40;;;12.30;99.90;;;;;;5032419;28;20828;-65
2022/09/28 05:51:39;;;;;;;0.30;0.30;;;12.30;99.90;;;;;;5026156;28;20201;-67
2022/09/28 05:54:06;;;;;;;0.40;0.40;;;12.20;99.90;;;;;;5033682;28;20270;-66
2022/09/28 05:56:33;;;;;;;0.40;0.40;;;12.20;99.90;;;;;;5027648;28;20212;-67
2022/09/28 05:59:00;;;;;;;0.50;0.50;;;12.20;99.90;;;;;;5026485;28;20202;-66
2022/09/28 06:01:27;;;;;;;0.50;0.50;;;12.20;99.90;;;;;;5025731;28;20255;-67
2022/09/28 06:03:55;;;;;;;0.73;0.73;;;12.10;99.90;;;;;;5024255;28;20304;-66
2022/09/28 06:06:22;;;;;;;0.50;0.50;;;12.10;99.90;;;;;;5015641;28;20204;-67
2022/09/28 06:08:49;;;;;;;0.60;0.60;;;12.10;99.90;;;;;;5018919;28;20203;-66
2022/09/28 06:11:15;;;;;;;0.70;0.70;;;12.10;99.90;;;;;;5021456;28;20211;-67
2022/09/28 06:13:42;;;;;;;1.00;1.00;;;12.20;99.90;;;;;;5020121;28;20255;-67
2022/09/28 06:16:15;;;;;;;0.90;0.90;;;12.20;99.90;;;;;;5023804;28;20204;-66
2022/09/28 06:18:42;;;;;;;0.70;0.70;;;12.10;99.90;;;;;;5032676;28;20565;-65
2022/09/28 06:21:10;;;;;;;0.63;0.63;;;12.10;99.90;;;;;;5025251;28;20240;-66
2022/09/28 06:23:37;;;;;;;0.60;0.60;;;12.10;99.90;;;;;;5031251;28;20299;-66
2022/09/28 06:26:03;;;;;;;0.60;0.60;;;12.20;99.90;;;;;;5030774;28;20299;-66
2022/09/28 06:28:30;;;;;;;0.40;0.40;;;12.20;99.90;;;;;;5023665;28;20229;-67
2022/09/28 06:30:59;;;;;;;0.93;0.70;;;12.20;99.90;;;;;;5022446;28;20236;-68
2022/09/28 06:33:26;;;;;;;0.43;0.43;;;12.30;99.90;;;;;;5031618;28;20307;-66
2022/09/28 06:35:54;;;;;;;0.50;0.50;;;12.30;99.90;;;;;;5030688;28;20200;-66
2022/09/28 06:38:22;;;;;;;0.50;0.50;;;12.40;99.90;;;;;;5025743;28;20197;-67
2022/09/28 06:40:48;;;;;;;0.50;0.50;;;12.50;99.90;;;;;;5022206;28;20197;-66
2022/09/28 06:43:15;;;;;;;0.50;0.50;;;12.50;99.90;;;;;;5021296;28;20216;-65
2022/09/28 06:45:43;;;;;;;0.23;0.23;;;12.50;99.90;;;;;;5010690;28;20198;-67
2022/09/28 06:48:11;;;;;;;0.60;0.60;;;12.50;99.90;;;;;;5013269;28;20216;-67
2022/09/28 06:50:39;;;;;;;0.77;0.77;;;12.50;99.90;;;;;;5019904;28;20207;-66
2022/09/28 06:53:08;;;;;;;0.60;0.60;;;12.50;99.90;;;;;;5020793;28;20206;-68
2022/09/28 06:55:38;;;;;;;0.60;0.60;;;12.50;99.90;;;;;;5020019;28;20208;-66
2022/09/28 06:58:07;;;;;;;0.67;0.67;;;12.50;99.90;;;;;;5019703;28;20207;-67
2022/09/28 07:00:36;;;;;;;0.60;0.60;;;12.50;99.90;;;;;;5010111;28;20213;-67
2022/09/28 07:03:04;;;;;;;0.80;0.80;;;12.50;99.90;;;;;;5021889;28;20210;-66
2022/09/28 07:05:35;;;;;;;0.50;0.50;;;12.50;99.90;;;;;;5020379;28;20208;-66
2022/09/28 07:08:02;;;;;;;0.70;0.70;;;12.50;99.90;;;;;;5022799;28;20684;-67
2022/09/28 07:10:31;;;;;;;0.60;0.60;;;12.60;99.90;;;;;;5019466;28;20213;-67
2022/09/28 07:13:02;;;;;;;0.97;0.90;;;12.40;99.90;;;;;;5021303;28;20212;-65
2022/09/28 07:15:30;;;;;;;0.63;0.63;;;12.40;99.90;;;;;;5024343;28;20633;-65
2022/09/28 07:17:58;;;;;;;0.60;0.60;;;12.40;99.90;;;;;;5029410;28;20274;-67
2022/09/28 07:20:25;;;;;;;0.53;0.53;;;12.40;99.90;;;;;;5027452;28;20228;-66
2022/09/28 07:22:53;;;;;;;0.70;0.70;;;12.40;99.90;;;;;;5030339;28;20663;-67
2022/09/28 07:25:20;;;;;;;0.70;0.70;;;12.40;99.90;;;;;;5035164;28;20229;-66
2022/09/28 07:27:47;;;;;;;0.60;0.60;;;12.40;99.90;;;;;;5034876;28;20221;-67
2022/09/28 07:30:15;;;;;;;0.70;0.70;;;12.40;99.90;;;;;;5032179;28;20204;-67
2022/09/28 07:32:44;;;;;;;0.70;0.70;;;12.40;99.90;;;;;;5030263;28;20200;-66
2022/09/28 07:35:11;;;;;;;0.80;0.80;;;12.30;99.90;;;;;;5033116;28;20708;-67
2022/09/28 07:37:38;;;;;;;0.80;0.80;;;12.40;99.90;;;;;;5026130;28;20204;-68
2022/09/28 07:42:50;;;;;;;1.10;0.80;;;12.30;99.90;;;;;;5031223;28;20203;-67
2022/09/28 07:45:22;;;;;;;0.80;0.80;;;12.40;99.90;;;;;;5034770;28;20258;-67
2022/09/28 07:47:49;;;;;;;0.70;0.70;;;12.40;99.90;;;;;;5027017;28;20550;-66
2022/09/28 07:50:16;;;;;;;1.00;1.00;;;12.50;99.90;;;;;;5024526;28;20598;-67
2022/09/28 07:52:44;;;;;;;0.70;0.70;;;12.60;99.90;;;;;;5035354;28;20205;-67
2022/09/28 07:55:10;;;;;;;0.70;0.70;;;12.60;99.90;;;;;;5040918;28;20232;-66
2022/09/28 07:57:38;;;;;;;0.90;0.90;;;12.70;99.90;;;;;;5040366;28;20212;-67
2022/09/28 08:00:07;;;;;;;0.80;0.80;;;12.80;99.90;;;;;;5037557;28;20208;-66
2022/09/28 08:02:37;;;;;;;0.87;0.87;;;12.80;99.90;;;;;;5027239;28;20717;-67
2022/09/28 08:05:04;;;;;;;0.87;0.87;;;12.90;99.90;;;;;;5022829;28;20233;-69
2022/09/28 08:07:33;;;;;;;1.00;1.00;;;12.90;99.90;;;;;;5020488;28;20221;-67
2022/09/28 08:10:00;;;;;;;1.00;1.00;;;12.90;99.90;;;;;;5022751;28;20205;-66
2022/09/28 08:12:26;;;;;;;1.50;1.03;;;12.90;99.90;;;;;;5018330;28;20299;-67
2022/09/28 08:14:54;;;;;;;0.80;0.80;;;12.90;99.90;;;;;;5019173;28;20243;-67
2022/09/28 08:17:21;;;;;;;1.10;1.00;;;13.00;99.90;;;;;;5019059;28;20590;-67
2022/09/28 08:22:33;;;;;;;1.53;1.20;;;13.10;99.90;;;;;;5016827;28;20238;-67
2022/09/28 08:25:00;;;;;;;0.90;0.90;;;13.10;99.90;;;;;;5019809;28;20714;-67
2022/09/28 08:27:27;;;;;;;1.30;1.20;;;13.10;99.90;;;;;;5016651;28;20704;-66
2022/09/28 08:29:54;;;;;;;1.00;1.00;;;13.20;99.90;;;;;;5018895;28;20208;-67
2022/09/28 08:32:20;;;;;;;1.00;1.00;;;13.20;99.90;;;;;;5014904;28;20200;-66
2022/09/28 08:34:49;;;;;;;1.00;1.00;;;13.20;99.90;;;;;;5015996;28;20220;-67
2022/09/28 08:37:15;;;;;;;1.17;1.07;;;13.30;99.90;;;;;;5016222;28;20205;-66
2022/09/28 08:39:42;;;;;;;1.00;1.00;;;13.20;99.90;;;;;;5018367;28;20316;-67
2022/09/28 08:42:28;;;;;;;1.00;1.00;;;13.20;99.90;;;;;;5020722;28;20294;-68
2022/09/28 08:44:59;;;;;;;1.90;1.27;;;13.30;99.90;;;;;;5015949;28;20315;-67
2022/09/28 08:50:23;;;;;;;1.00;1.00;;;13.20;99.90;;;;;;5016657;28;20200;-67
2022/09/28 08:52:56;;;;;;;1.40;1.30;;;13.20;99.90;;;;;;5025318;28;20201;-67
2022/09/28 08:55:30;;;;;;;1.33;1.20;;;13.20;99.90;;;;;;5017367;28;20731;-67
2022/09/28 08:58:01;;;;;;;1.10;1.03;;;13.20;99.90;;;;;;5022565;28;20659;-66
2022/09/28 09:00:34;;;;;;;1.53;1.13;;;13.20;99.90;;;;;;5012827;28;20568;-67
2022/09/28 09:03:05;;;;;;;1.33;1.20;;;13.20;99.90;;;;;;5020675;28;20198;-67
2022/09/28 09:05:51;;;;;;;1.47;1.23;;;13.20;99.90;;;;;;5019778;28;20264;-66
2022/09/28 09:08:38;;;;;;;1.20;1.17;;;13.20;99.90;;;;;;5019625;28;20636;-65
2022/09/28 09:11:19;;;;;;;1.10;1.00;;;13.30;99.90;;;;;;5015348;28;20205;-67
2022/09/28 09:14:03;;;;;;;1.00;1.00;;;13.30;99.90;;;;;;5012183;28;20258;-66
2022/09/28 09:16:40;;;;;;;1.20;1.10;;;13.40;99.90;;;;;;5016782;28;20672;-68
2022/09/28 09:19:16;;;;;;;1.03;1.03;;;13.40;99.90;;;;;;5022057;28;20263;-67
2022/09/28 09:21:50;;;;;;;0.90;0.90;;;13.40;99.90;;;;;;5017025;28;20197;-66
2022/09/28 09:24:26;;;;;;;1.40;1.30;;;13.40;99.90;;;;;;5017113;28;20217;-66
2022/09/28 09:27:04;;;;;;;1.17;1.13;;;13.40;99.90;;;;;;5018572;28;20228;-66
2022/09/28 09:29:45;;;;;;;1.13;1.13;;;13.40;99.90;;;;;;5020127;28;20209;-67
2022/09/28 09:32:29;;;;;;;2.43;1.23;;;13.50;99.90;;;;;;5018727;28;20211;-66
2022/09/28 09:35:21;;;;;;;1.00;1.00;;;13.50;99.90;;;;;;5025010;28;20311;-67
2022/09/28 09:38:18;;;;;;;1.00;1.00;;;13.50;99.90;;;;;;5017650;28;20240;-66
2022/09/28 09:41:06;;;;;;;0.93;0.93;;;13.50;99.90;;;;;;5020719;28;20547;-66
2022/09/28 09:43:58;;;;;;;2.63;1.00;;;13.50;99.90;;;;;;5014227;28;20232;-67
2022/09/28 09:46:34;;;;;;;1.60;1.30;;;13.60;99.90;;;;;;5017260;28;20288;-65
2022/09/28 09:49:06;;;;;;;1.40;1.10;;;13.40;99.90;;;;;;5016598;28;20241;-66
2022/09/28 09:51:40;;;;;;;1.00;1.00;;;13.40;99.90;;;;;;5018544;28;20283;-66
2022/09/28 09:54:18;;;;;;;1.27;1.17;;;13.20;99.90;;;;;;5019801;28;20272;-67
2022/09/28 09:56:49;;;;;;;1.10;1.00;;;13.20;99.90;;;;;;5046701;22;20244;-62
2022/09/28 09:59:23;;;;;;;1.40;1.30;;;13.20;99.90;;;;;;5034680;28;20199;-61
2022/09/28 10:01:51;;;;;;;1.40;1.30;;;13.30;99.90;;;;;;5041932;28;20200;-61
2022/09/28 10:04:22;;;;;;;0.90;0.90;;;13.30;99.90;;;;;;5052190;28;20300;-61
2022/09/28 10:06:51;;;;;;;1.10;1.00;;;13.30;99.90;;;;;;5025752;28;20232;-61
2022/09/28 10:09:24;;;;;;;1.17;1.10;;;13.40;99.90;;;;;;5003473;28;20231;-63
2022/09/28 10:11:52;;;;;;;0.90;0.90;;;13.30;99.90;;;;;;5016852;28;20255;-61
2022/09/28 10:14:22;;;;;;;1.10;1.10;;;13.40;99.90;;;;;;5022226;28;20201;-62
2022/09/28 10:16:50;;;;;;;0.80;0.80;;;13.50;99.90;;;;;;5018651;28;20229;-62
2022/09/28 10:19:20;;;;;;;0.97;0.97;;;13.50;99.90;;;;;;5004761;28;20209;-62
2022/09/28 10:21:50;;;;;;;1.27;1.27;;;13.50;99.90;;;;;;5009818;28;20259;-61
2022/09/28 10:24:23;;;;;;;1.00;1.00;;;13.60;99.90;;;;;;5003684;28;20214;-63
2022/09/28 10:26:54;;;;;;;1.37;0.93;;;13.70;99.90;;;;;;5017812;28;20912;-61
2022/09/28 10:29:23;;;;;;;1.00;1.00;;;13.90;99.90;;;;;;5016613;28;20706;-61
2022/09/28 10:31:51;;;;;;;0.90;0.90;;;14.00;99.90;;;;;;5022394;28;20592;-61
2022/09/28 10:34:24;;;;;;;1.10;1.00;;;13.90;99.90;;;;;;5013182;28;20200;-62
2022/09/28 10:36:56;;;;;;;0.80;0.80;;;13.80;99.90;;;;;;5009192;28;20225;-63
2022/09/28 10:39:30;;;;;;;0.73;0.73;;;13.80;99.90;;;;;;5005273;28;20198;-60
2022/09/28 10:42:02;;;;;;;0.90;0.90;;;13.90;99.90;;;;;;5008403;28;20255;-63
2022/09/28 10:44:32;;;;;;;1.00;1.00;;;13.90;99.90;;;;;;5009564;28;20209;-62
2022/09/28 10:47:01;;;;;;;1.33;1.00;;;13.90;99.90;;;;;;5008375;28;20232;-61
2022/09/28 10:49:30;;;;;;;1.00;1.00;;;14.00;99.90;;;;;;5015048;28;20224;-61
2022/09/28 10:51:57;;;;;;;0.80;0.80;;;14.10;99.90;;;;;;5020399;28;20312;-61
2022/09/28 10:54:30;;;;;;;0.87;0.87;;;14.10;99.90;;;;;;5011558;28;20659;-60
2022/09/28 10:56:58;;;;;;;0.90;0.90;;;14.20;99.90;;;;;;5020057;28;21045;-63
2022/09/28 10:59:40;;;;;;;0.90;0.90;;;14.20;99.90;;;;;;5011220;28;20208;-63
2022/09/28 11:02:20;;;;;;;0.93;0.93;;;14.30;99.90;;;;;;5023412;28;20205;-61
2022/09/28 11:04:54;;;;;;;1.20;1.10;;;14.40;99.90;;;;;;5019825;28;20584;-63
2022/09/28 11:07:23;;;;;;;1.20;1.10;;;14.40;99.90;;;;;;5016290;28;20657;-62
2022/09/28 11:09:53;;;;;;;1.10;1.10;;;14.40;99.90;;;;;;5015227;28;20575;-60
2022/09/28 11:12:23;;;;;;;1.00;1.00;;;14.30;99.90;;;;;;5013246;28;20213;-60
2022/09/28 11:14:55;;;;;;;1.30;1.20;;;14.30;99.90;;;;;;5020927;28;20207;-62
2022/09/28 11:17:28;;;;;;;0.93;0.93;;;14.30;99.90;;;;;;5013268;28;20711;-61
2022/09/28 11:19:56;;;;;;;0.87;0.87;;;14.30;99.90;;;;;;5005608;28;20220;-62
2022/09/28 11:22:27;;;;;;;1.10;1.00;;;14.40;99.90;;;;;;5013546;28;20205;-61
2022/09/28 11:25:14;;;;;;;1.20;1.20;;;14.50;99.90;;;;;;5014153;28;20208;-61
2022/09/28 11:27:41;;;;;;;1.10;1.10;;;14.40;99.90;;;;;;5025669;28;20224;-61
2022/09/28 11:30:23;;;;;;;0.80;0.80;;;14.20;99.90;;;;;;5020126;28;20232;-61
2022/09/28 11:32:52;;;;;;;1.03;1.03;;;14.40;99.90;;;;;;5032023;28;20269;-62
2022/09/28 11:35:22;;;;;;;0.90;0.90;;;14.60;99.90;;;;;;5024774;28;20207;-63
2022/09/28 11:38:32;;;;;;;1.10;1.00;;;14.80;99.90;;;;;;5031096;28;20303;-62
2022/09/28 11:41:24;;;;;;;1.20;1.20;;;14.90;99.90;;;;;;5019444;28;20236;-61
2022/09/28 11:44:18;;;;;;;0.97;0.90;;;15.00;99.90;;;;;;5021570;28;20232;-61
2022/09/28 11:47:00;;;;;;;1.30;1.20;;;14.90;99.90;;;;;;5015970;28;20221;-61
2022/09/28 11:49:33;;;;;;;0.93;0.93;;;14.60;99.90;;;;;;5010723;28;20233;-63
2022/09/28 11:52:07;;;;;;;0.87;0.87;;;14.60;99.90;;;;;;5015156;28;20244;-62
2022/09/28 11:54:40;;;;;;;0.87;0.70;;;14.50;99.90;;;;;;5010887;28;20590;-62
2022/09/28 11:57:14;;;;;;;1.17;0.97;;;14.70;99.90;;;;;;5011852;28;20231;-62
2022/09/28 11:59:52;;;;;;;1.10;1.03;;;14.70;99.90;;;;;;5012017;28;20232;-62
2022/09/28 12:02:24;;;;;;;0.87;0.87;;;14.60;99.90;;;;;;5013651;28;20205;-63
2022/09/28 12:04:56;;;;;;;1.27;1.20;;;14.50;99.90;;;;;;5022848;28;20204;-62
2022/09/28 12:07:31;;;;;;;0.80;0.80;;;14.60;99.90;;;;;;5004909;28;20422;-63
2022/09/28 12:10:03;;;;;;;1.10;1.00;;;14.60;99.90;;;;;;5011300;28;20231;-62
2022/09/28 12:12:35;;;;;;;0.90;0.90;;;14.40;99.90;;;;;;5012259;28;20209;-62
2022/09/28 12:15:13;;;;;;;1.00;1.00;;;14.30;99.90;;;;;;5012946;28;20223;-62
2022/09/28 12:17:43;;;;;;;0.90;0.90;;;14.30;99.90;;;;;;5013970;28;20221;-63
2022/09/28 12:20:18;;;;;;;0.90;0.90;;;14.40;99.90;;;;;;5021416;28;20675;-61
2022/09/28 12:22:54;;;;;;;0.80;0.80;;;14.60;99.90;;;;;;5024975;28;20690;-62
2022/09/28 12:25:23;;;;;;;1.13;1.03;;;14.70;99.90;;;;;;5020041;28;20576;-61
2022/09/28 12:27:56;;;;;;;1.20;1.10;;;14.80;99.90;;;;;;5018727;28;20226;-61
2022/09/28 12:30:25;;;;;;;1.20;1.10;;;14.90;99.90;;;;;;5015794;28;20278;-61
2022/09/28 12:32:58;;;;;;;1.20;1.20;;;15.00;99.90;;;;;;5014178;28;20206;-63
2022/09/28 12:35:37;;;;;;;1.00;1.00;;;14.90;99.90;;;;;;5027809;28;20241;-61
2022/09/28 12:38:25;;;;;;;0.90;0.90;;;14.80;99.90;;;;;;5018650;28;20216;-61
2022/09/28 12:41:01;;;;;;;1.40;1.30;;;14.90;99.90;;;;;;5010611;28;20292;-61
2022/09/28 12:44:00;;;;;;;0.73;0.73;;;14.80;99.90;;;;;;5021932;28;20207;-63
2022/09/28 12:46:53;;;;;;;0.87;0.83;;;14.70;99.90;;;;;;5016440;28;20224;-61
2022/09/28 12:49:31;;;;;;;1.50;1.10;;;14.60;99.90;;;;;;5016594;28;20224;-62
2022/09/28 12:52:04;;;;;;;1.10;1.10;;;14.70;99.90;;;;;;5018834;28;20706;-63
2022/09/28 12:54:52;;;;;;;0.87;0.87;;;14.70;99.90;;;;;;5021548;28;20212;-63
2022/09/28 12:57:39;;;;;;;0.97;0.90;;;14.80;99.90;;;;;;5012633;28;20275;-63
2022/09/28 13:00:12;;;;;;;0.87;0.87;;;14.60;99.90;;;;;;5012214;28;20208;-63
2022/09/28 13:03:31;;;;;;;1.30;1.20;;;14.70;99.90;;;;;;5022342;28;20228;-62
2022/09/28 13:06:24;;;;;;;1.43;1.00;;;14.60;99.90;;;;;;5025160;28;20217;-62
2022/09/28 13:09:04;;;;;;;0.70;0.70;;;14.80;99.90;;;;;;5018801;28;20336;-61
2022/09/28 13:11:38;;;;;;;1.00;1.00;;;14.80;99.90;;;;;;5017878;28;20205;-62
2022/09/28 13:14:34;;;;;;;0.90;0.90;;;14.70;99.90;;;;;;5023802;28;20205;-62
2022/09/28 13:17:10;;;;;;;0.80;0.80;;;14.80;99.90;;;;;;5023655;28;20227;-62
2022/09/28 13:19:46;;;;;;;1.00;1.00;;;14.80;99.90;;;;;;5024801;28;20211;-63
2022/09/28 13:22:27;;;;;;;0.60;0.60;;;14.90;99.90;;;;;;5026314;28;20291;-62